createdAt,value
2019-01-26T00:01:42.205Z,96.00
2019-01-26T00:04:10.049Z,96.00
2019-01-26T00:06:37.736Z,96.10
2019-01-26T00:09:08.441Z,96.00
2019-01-26T00:11:36.141Z,96.00
2019-01-26T00:14:03.958Z,96.00
2019-01-26T00:16:31.661Z,96.00
2019-01-26T00:18:59.349Z,96.00
2019-01-26T00:21:27.082Z,96.00
2019-01-26T00:23:54.806Z,96.00
2019-01-26T00:26:22.517Z,96.10
2019-01-26T00:28:50.276Z,96.10
2019-01-26T00:31:18.349Z,96.00
2019-01-26T00:33:46.325Z,96.00
2019-01-26T00:36:14.194Z,96.00
2019-01-26T00:38:41.931Z,96.20
2019-01-26T00:41:09.629Z,96.20
2019-01-26T00:43:37.342Z,96.20
2019-01-26T00:46:05.127Z,96.20
2019-01-26T00:48:32.856Z,96.10
2019-01-26T00:51:00.589Z,96.00
2019-01-26T00:53:28.385Z,96.10
2019-01-26T00:55:56.126Z,96.00
2019-01-26T00:58:23.996Z,96.10
2019-01-26T01:00:51.740Z,96.10
2019-01-26T01:03:19.561Z,96.10
2019-01-26T01:05:47.362Z,96.10
2019-01-26T01:08:15.049Z,96.00
2019-01-26T01:10:42.781Z,96.10
2019-01-26T01:13:10.510Z,96.20
2019-01-26T01:15:38.232Z,96.20
2019-01-26T01:18:06.042Z,96.10
2019-01-26T01:20:33.965Z,96.10
2019-01-26T01:23:01.627Z,96.10
2019-01-26T01:25:29.414Z,96.00
2019-01-26T01:27:57.145Z,96.10
2019-01-26T01:30:24.881Z,96.20
2019-01-26T01:32:52.707Z,96.10
2019-01-26T01:35:20.413Z,96.10
2019-01-26T01:37:48.227Z,96.20
2019-01-26T01:40:15.905Z,96.20
2019-01-26T01:42:43.592Z,96.20
2019-01-26T01:45:13.838Z,96.20
2019-01-26T01:47:41.604Z,96.20
2019-01-26T01:50:09.385Z,96.20
2019-01-26T01:52:37.135Z,96.30
2019-01-26T01:55:05.429Z,96.30
2019-01-26T01:57:33.118Z,96.30
2019-01-26T02:00:00.882Z,96.40
2019-01-26T02:02:28.805Z,96.40
2019-01-26T02:04:56.556Z,96.50
2019-01-26T02:07:24.261Z,96.40
2019-01-26T02:09:51.953Z,96.50
2019-01-26T02:12:19.662Z,96.60
2019-01-26T02:14:47.577Z,96.60
2019-01-26T02:17:15.273Z,96.70
2019-01-26T02:19:42.957Z,96.70
2019-01-26T02:22:10.688Z,96.70
2019-01-26T02:24:38.404Z,96.70
2019-01-26T02:27:06.093Z,96.80
2019-01-26T02:29:33.870Z,96.80
2019-01-26T02:32:01.661Z,97.20
2019-01-26T02:34:29.361Z,97.00
2019-01-26T02:36:57.289Z,97.00
2019-01-26T02:39:25.141Z,97.00
2019-01-26T02:41:52.877Z,97.10
2019-01-26T02:44:20.574Z,97.20
2019-01-26T02:46:48.289Z,97.30
2019-01-26T02:49:16.000Z,97.30
2019-01-26T02:51:43.885Z,97.40
2019-01-26T02:54:11.606Z,97.40
2019-01-26T02:56:39.426Z,97.50
2019-01-26T02:59:07.421Z,97.50
2019-01-26T03:01:35.294Z,97.60
2019-01-26T03:04:03.367Z,97.70
2019-01-26T03:06:31.241Z,97.80
2019-01-26T03:08:59.300Z,97.90
2019-01-26T03:11:27.025Z,98.00
2019-01-26T03:13:54.985Z,97.90
2019-01-26T03:16:22.931Z,98.00
2019-01-26T03:18:50.626Z,98.00
2019-01-26T03:21:18.402Z,98.20
2019-01-26T03:23:46.205Z,97.80
2019-01-26T03:26:13.922Z,97.90
2019-01-26T03:28:41.645Z,97.90
2019-01-26T03:31:09.538Z,97.90
2019-01-26T03:33:37.264Z,98.00
2019-01-26T03:36:04.953Z,97.80
2019-01-26T03:38:32.665Z,97.80
2019-01-26T03:41:00.363Z,97.80
2019-01-26T03:43:28.177Z,97.90
2019-01-26T03:45:55.915Z,97.90
2019-01-26T03:48:23.608Z,97.90
2019-01-26T03:50:51.331Z,97.90
2019-01-26T03:53:19.031Z,97.80
2019-01-26T03:55:46.748Z,97.70
2019-01-26T03:58:14.445Z,97.70
2019-01-26T04:00:42.202Z,97.70
2019-01-26T04:03:09.897Z,97.60
2019-01-26T04:05:37.676Z,97.60
2019-01-26T04:08:05.389Z,97.60
2019-01-26T04:10:33.113Z,97.60
2019-01-26T04:13:00.813Z,97.60
2019-01-26T04:15:28.526Z,97.70
2019-01-26T04:17:56.213Z,97.60
2019-01-26T04:20:23.925Z,97.60
2019-01-26T04:22:51.838Z,97.60
2019-01-26T04:25:19.541Z,97.70
2019-01-26T04:27:47.282Z,97.80
2019-01-26T04:30:19.210Z,97.80
2019-01-26T04:32:46.931Z,97.80
2019-01-26T04:35:14.665Z,97.90
2019-01-26T04:37:42.356Z,97.90
2019-01-26T04:40:12.149Z,97.90
2019-01-26T04:42:39.889Z,97.90
2019-01-26T04:45:10.477Z,97.90
2019-01-26T04:47:38.194Z,97.80
2019-01-26T04:50:06.941Z,97.90
2019-01-26T04:52:34.665Z,97.80
2019-01-26T04:55:02.376Z,98.30
2019-01-26T04:57:30.094Z,98.20
2019-01-26T04:59:57.773Z,98.30
2019-01-26T05:02:25.509Z,98.50
2019-01-26T05:04:53.196Z,98.60
2019-01-26T05:07:20.900Z,98.80
2019-01-26T05:09:48.618Z,99.00
2019-01-26T05:12:16.337Z,99.10
2019-01-26T05:14:44.049Z,99.30
2019-01-26T05:17:11.749Z,99.40
2019-01-26T05:19:39.463Z,99.30
2019-01-26T05:22:07.141Z,99.30
2019-01-26T05:24:34.848Z,99.10
2019-01-26T05:27:02.598Z,99.10
2019-01-26T05:29:30.301Z,99.00
2019-01-26T05:31:58.038Z,98.90
2019-01-26T05:34:25.736Z,98.70
2019-01-26T05:36:53.441Z,98.60
2019-01-26T05:39:21.164Z,98.50
2019-01-26T05:41:48.901Z,98.70
2019-01-26T05:44:16.697Z,98.50
2019-01-26T05:49:23.494Z,98.60
2019-01-26T05:51:51.205Z,98.60
2019-01-26T05:54:19.092Z,98.70
2019-01-26T05:56:46.733Z,98.70
2019-01-26T05:59:14.457Z,98.70
2019-01-26T06:01:42.173Z,98.60
2019-01-26T06:04:10.106Z,98.50
2019-01-26T06:06:37.820Z,98.50
2019-01-26T06:09:07.726Z,98.60
2019-01-26T06:11:35.452Z,98.70
2019-01-26T06:14:03.157Z,98.70
2019-01-26T06:16:30.901Z,98.70
2019-01-26T06:18:58.599Z,98.70
2019-01-26T06:21:26.303Z,98.60
2019-01-26T06:23:54.023Z,98.60
2019-01-26T06:26:41.117Z,98.60
2019-01-26T06:29:08.833Z,98.60
2019-01-26T06:31:36.766Z,98.60
2019-01-26T06:34:04.464Z,98.80
2019-01-26T06:36:32.419Z,99.00
2019-01-26T06:39:00.118Z,99.00
2019-01-26T06:41:27.953Z,98.90
2019-01-26T06:43:56.012Z,98.90
2019-01-26T06:46:23.732Z,98.90
2019-01-26T06:48:55.556Z,98.90
2019-01-26T06:51:23.333Z,99.00
2019-01-26T06:53:51.950Z,99.10
2019-01-26T06:56:19.653Z,99.20
2019-01-26T06:58:47.425Z,99.20
2019-01-26T07:01:15.105Z,99.50
2019-01-26T07:03:42.829Z,99.20
2019-01-26T07:06:20.128Z,99.30
2019-01-26T07:08:47.852Z,99.40
2019-01-26T07:11:15.585Z,99.90
2019-01-26T07:13:43.261Z,99.60
2019-01-26T07:16:11.385Z,99.70
2019-01-26T07:18:39.069Z,99.90
2019-01-26T07:21:06.798Z,99.90
2019-01-26T07:23:34.509Z,99.90
2019-01-26T07:26:02.213Z,99.90
2019-01-26T07:28:29.930Z,99.90
2019-01-26T07:30:57.738Z,99.90
2019-01-26T07:33:25.453Z,99.90
2019-01-26T07:35:53.255Z,99.90
2019-01-26T07:38:20.958Z,99.90
2019-01-26T07:40:48.734Z,99.90
2019-01-26T07:43:16.823Z,99.90
2019-01-26T07:45:44.728Z,99.90
2019-01-26T07:48:16.688Z,99.90
2019-01-26T07:50:41.897Z,99.90
2019-01-26T07:53:09.592Z,99.90
2019-01-26T07:55:37.341Z,99.90
2019-01-26T07:58:05.044Z,99.90
2019-01-26T08:00:32.761Z,99.90
2019-01-26T08:03:00.496Z,99.90
2019-01-26T08:05:28.209Z,99.90
2019-01-26T08:07:56.873Z,99.90
2019-01-26T08:10:24.677Z,99.90
2019-01-26T08:12:52.640Z,99.90
2019-01-26T08:15:22.994Z,99.90
2019-01-26T08:17:50.705Z,99.90
2019-01-26T08:20:18.927Z,99.90
2019-01-26T08:22:46.632Z,99.90
2019-01-26T08:25:14.643Z,99.90
2019-01-26T08:27:42.364Z,99.90
2019-01-26T08:30:13.281Z,99.90
2019-01-26T08:32:40.977Z,99.90
2019-01-26T08:35:08.935Z,99.90
2019-01-26T08:37:36.637Z,99.90
2019-01-26T08:40:04.521Z,99.90
2019-01-26T08:42:32.249Z,99.90
2019-01-26T08:45:00.012Z,99.90
2019-01-26T08:47:27.741Z,99.70
2019-01-26T08:49:55.493Z,99.60
2019-01-26T08:52:23.310Z,99.70
2019-01-26T08:54:50.976Z,99.50
2019-01-26T08:57:18.720Z,99.40
2019-01-26T08:59:46.457Z,99.30
2019-01-26T09:02:27.549Z,98.80
2019-01-26T09:04:56.374Z,99.00
2019-01-26T09:07:24.601Z,99.10
2019-01-26T09:09:52.337Z,99.40
2019-01-26T09:12:20.058Z,99.60
2019-01-26T09:14:47.776Z,99.60
2019-01-26T09:17:15.489Z,99.70
2019-01-26T09:19:43.195Z,99.80
2019-01-26T09:22:11.059Z,99.90
2019-01-26T09:24:38.763Z,99.90
2019-01-26T09:27:06.566Z,99.90
2019-01-26T09:29:34.268Z,99.80
2019-01-26T09:32:01.957Z,99.90
2019-01-26T09:34:29.717Z,99.90
2019-01-26T09:36:57.440Z,99.90
2019-01-26T09:39:25.693Z,99.90
2019-01-26T09:41:53.468Z,99.90
2019-01-26T09:44:21.180Z,99.90
2019-01-26T09:46:49.064Z,99.90
2019-01-26T09:49:16.801Z,99.70
2019-01-26T09:51:44.563Z,98.80
2019-01-26T09:54:12.273Z,98.50
2019-01-26T09:56:39.983Z,97.80
2019-01-26T09:59:07.700Z,98.00
2019-01-26T10:01:35.393Z,98.40
2019-01-26T10:04:03.215Z,97.80
2019-01-26T10:06:30.933Z,97.50
2019-01-26T10:08:58.638Z,97.90
2019-01-26T10:11:29.347Z,97.90
2019-01-26T10:13:58.502Z,97.70
2019-01-26T10:16:26.302Z,97.20
2019-01-26T10:18:54.210Z,97.20
2019-01-26T10:21:21.906Z,96.70
2019-01-26T10:23:49.621Z,96.60
2019-01-26T10:26:17.332Z,96.30
2019-01-26T10:28:45.052Z,95.60
2019-01-26T10:31:12.765Z,95.30
2019-01-26T10:33:40.464Z,95.20
2019-01-26T10:36:20.845Z,94.90
2019-01-26T10:38:52.549Z,94.70
2019-01-26T10:41:39.101Z,95.00
2019-01-26T10:44:07.521Z,95.10
2019-01-26T10:46:35.237Z,95.30
2019-01-26T10:49:03.005Z,95.50
2019-01-26T10:51:30.725Z,95.80
2019-01-26T10:53:58.516Z,95.60
2019-01-26T10:56:26.220Z,95.60
2019-01-26T10:58:53.937Z,96.20
2019-01-26T11:01:21.667Z,96.50
2019-01-26T11:04:08.793Z,96.70
2019-01-26T11:06:36.490Z,97.40
2019-01-26T11:09:07.709Z,97.30
2019-01-26T11:11:35.433Z,97.20
2019-01-26T11:14:03.141Z,96.90
2019-01-26T11:16:31.278Z,96.60
2019-01-26T11:18:59.033Z,96.80
2019-01-26T11:21:26.742Z,97.10
2019-01-26T11:23:54.452Z,97.10
2019-01-26T11:26:22.165Z,96.90
2019-01-26T11:28:49.874Z,96.80
2019-01-26T11:31:17.681Z,96.70
2019-01-26T11:33:45.405Z,96.60
2019-01-26T11:36:13.101Z,96.40
2019-01-26T11:38:40.813Z,95.80
2019-01-26T11:41:08.521Z,95.60
2019-01-26T11:43:36.260Z,95.40
2019-01-26T11:46:16.613Z,95.60
2019-01-26T11:48:46.469Z,95.40
2019-01-26T11:51:37.045Z,95.90
2019-01-26T11:54:04.768Z,96.50
2019-01-26T11:56:40.021Z,96.90
2019-01-26T11:59:07.871Z,97.40
2019-01-26T12:01:53.702Z,98.00
2019-01-26T12:04:53.155Z,97.80
2019-01-26T12:07:24.191Z,97.60
2019-01-26T12:09:51.905Z,97.60
2019-01-26T12:12:19.604Z,97.00
2019-01-26T12:14:47.414Z,96.90
2019-01-26T12:17:15.175Z,96.60
2019-01-26T12:19:42.861Z,96.50
2019-01-26T12:22:10.592Z,96.20
2019-01-26T12:24:38.365Z,95.80
2019-01-26T12:27:06.082Z,95.80
2019-01-26T12:29:33.841Z,96.00
2019-01-26T12:32:01.610Z,96.40
2019-01-26T12:34:29.312Z,95.80
2019-01-26T12:36:57.001Z,95.80
2019-01-26T12:39:24.711Z,95.50
2019-01-26T12:41:52.422Z,95.20
2019-01-26T12:44:20.109Z,94.60
2019-01-26T12:46:47.833Z,95.10
2019-01-26T12:49:15.586Z,95.10
2019-01-26T12:51:46.254Z,94.80
2019-01-26T12:54:14.001Z,94.60
2019-01-26T12:56:41.713Z,95.20
2019-01-26T12:59:09.433Z,95.40
2019-01-26T13:01:37.121Z,95.70
2019-01-26T13:04:05.177Z,95.80
2019-01-26T13:06:32.897Z,95.90
2019-01-26T13:09:00.745Z,95.90
2019-01-26T13:11:29.271Z,95.80
2019-01-26T13:13:57.010Z,96.20
2019-01-26T13:16:25.074Z,96.60
2019-01-26T13:18:52.817Z,96.40
2019-01-26T13:21:20.717Z,96.50
2019-01-26T13:23:48.453Z,96.30
2019-01-26T13:26:16.356Z,96.60
2019-01-26T13:28:44.073Z,96.60
2019-01-26T13:31:11.769Z,96.20
2019-01-26T13:33:39.489Z,95.50
2019-01-26T13:36:07.516Z,95.30
2019-01-26T13:38:35.243Z,95.40
2019-01-26T13:41:02.922Z,95.10
2019-01-26T13:43:30.637Z,94.70
2019-01-26T13:45:58.341Z,94.60
2019-01-26T13:48:26.193Z,94.50
2019-01-26T13:50:53.887Z,94.50
2019-01-26T13:53:21.793Z,94.70
2019-01-26T13:55:49.513Z,94.90
2019-01-26T13:58:17.568Z,94.70
2019-01-26T14:00:45.274Z,94.40
2019-01-26T14:03:12.976Z,94.30
2019-01-26T14:05:40.707Z,94.00
2019-01-26T14:08:08.725Z,94.10
2019-01-26T14:10:36.445Z,94.00
2019-01-26T14:13:04.533Z,93.80
2019-01-26T14:15:32.241Z,93.80
2019-01-26T14:17:59.954Z,93.60
2019-01-26T14:20:27.690Z,93.40
2019-01-26T14:22:55.384Z,93.20
2019-01-26T14:25:25.096Z,92.90
2019-01-26T14:27:52.841Z,93.10
2019-01-26T14:30:26.413Z,93.10
2019-01-26T14:32:54.145Z,93.30
2019-01-26T14:35:22.566Z,93.30
2019-01-26T14:37:50.685Z,93.20
2019-01-26T14:40:18.428Z,93.90
2019-01-26T14:42:46.153Z,94.30
2019-01-26T14:45:13.969Z,94.80
2019-01-26T14:47:41.846Z,94.90
2019-01-26T14:50:10.596Z,95.10
2019-01-26T14:52:38.301Z,95.10
2019-01-26T14:55:08.104Z,95.20
2019-01-26T14:57:35.834Z,95.80
2019-01-26T15:00:04.939Z,95.90
2019-01-26T15:02:33.069Z,96.10
2019-01-26T15:05:01.065Z,96.30
2019-01-26T15:07:28.916Z,96.20
2019-01-26T15:09:56.629Z,96.20
2019-01-26T15:12:29.980Z,95.90
2019-01-26T15:15:02.919Z,96.00
2019-01-26T15:17:38.183Z,96.30
2019-01-26T15:20:08.837Z,96.50
2019-01-26T15:22:36.920Z,96.50
2019-01-26T15:25:05.426Z,96.50
2019-01-26T15:27:33.132Z,96.40
2019-01-26T15:30:00.829Z,96.50
2019-01-26T15:32:28.524Z,96.50
2019-01-26T15:34:56.216Z,96.50
2019-01-26T15:37:23.936Z,96.40
2019-01-26T15:39:51.644Z,96.30
2019-01-26T15:42:19.352Z,96.30
2019-01-26T15:44:47.068Z,96.50
2019-01-26T15:47:14.824Z,96.60
2019-01-26T15:49:42.569Z,96.60
2019-01-26T15:52:10.333Z,96.70
2019-01-26T15:54:38.054Z,96.90
2019-01-26T15:57:05.757Z,96.90
2019-01-26T15:59:33.513Z,96.90
2019-01-26T16:02:01.214Z,96.90
2019-01-26T16:04:29.029Z,97.10
2019-01-26T16:06:56.808Z,97.20
2019-01-26T16:09:24.509Z,97.30
2019-01-26T16:11:52.225Z,97.50
2019-01-26T16:14:19.917Z,97.40
2019-01-26T16:16:47.609Z,97.40
2019-01-26T16:19:15.336Z,97.40
2019-01-26T16:21:43.030Z,97.50
2019-01-26T16:24:10.769Z,97.70
2019-01-26T16:26:38.480Z,97.70
2019-01-26T16:29:06.506Z,97.80
2019-01-26T16:31:34.312Z,98.00
2019-01-26T16:34:02.143Z,98.00
2019-01-26T16:36:29.899Z,98.00
2019-01-26T16:38:57.645Z,98.20
2019-01-26T16:41:25.470Z,98.30
2019-01-26T16:43:53.210Z,98.30
2019-01-26T16:46:20.933Z,98.40
2019-01-26T16:48:48.749Z,98.50
2019-01-26T16:51:16.522Z,98.70
2019-01-26T16:53:44.346Z,98.80
2019-01-26T16:56:12.544Z,98.80
2019-01-26T16:58:40.341Z,98.90
2019-01-26T17:01:08.353Z,98.90
2019-01-26T17:03:36.077Z,99.00
2019-01-26T17:06:04.064Z,99.10
2019-01-26T17:08:31.785Z,99.30
2019-01-26T17:10:59.540Z,99.40
2019-01-26T17:13:27.605Z,99.60
2019-01-26T17:15:55.309Z,99.60
2019-01-26T17:18:23.481Z,99.60
2019-01-26T17:20:51.615Z,99.50
2019-01-26T17:23:19.453Z,99.40
2019-01-26T17:25:47.165Z,99.50
2019-01-26T17:28:14.917Z,99.50
2019-01-26T17:30:42.989Z,99.50
2019-01-26T17:33:10.702Z,99.60
2019-01-26T17:35:38.393Z,99.50
2019-01-26T17:38:06.113Z,99.50
2019-01-26T17:40:33.845Z,99.60
2019-01-26T17:43:01.560Z,99.70
2019-01-26T17:45:29.260Z,99.90
2019-01-26T17:47:57.205Z,99.90
2019-01-26T17:50:25.023Z,99.90
2019-01-26T17:52:52.948Z,99.90
2019-01-26T17:55:20.829Z,99.90
2019-01-26T17:57:48.554Z,99.90
2019-01-26T18:00:26.165Z,99.90
2019-01-26T18:02:54.265Z,99.90
2019-01-26T18:05:21.979Z,99.90
2019-01-26T18:07:49.877Z,99.90
2019-01-26T18:10:18.597Z,99.90
2019-01-26T18:12:46.468Z,99.90
2019-01-26T18:15:14.282Z,99.90
2019-01-26T18:17:45.304Z,99.90
2019-01-26T18:20:59.281Z,99.90
2019-01-26T18:23:31.268Z,99.90
2019-01-26T18:26:02.090Z,99.90
2019-01-26T18:28:34.757Z,99.90
2019-01-26T18:31:03.757Z,99.90
2019-01-26T18:33:36.581Z,99.90
2019-01-26T18:36:05.125Z,99.90
2019-01-26T18:38:32.825Z,99.90
2019-01-26T18:41:00.533Z,99.90
2019-01-26T18:43:28.237Z,99.90
2019-01-26T18:45:55.935Z,99.90
2019-01-26T18:48:23.676Z,99.90
2019-01-26T18:50:56.062Z,99.90
2019-01-26T18:53:20.976Z,99.90
2019-01-26T18:55:48.661Z,99.90
2019-01-26T18:58:16.357Z,99.90
2019-01-26T19:00:46.886Z,99.90
2019-01-26T19:03:41.157Z,99.90
2019-01-26T19:06:09.137Z,99.90
2019-01-26T19:08:36.892Z,99.90
2019-01-26T19:11:04.590Z,99.90
2019-01-26T19:13:32.296Z,99.90
2019-01-26T19:16:00.218Z,99.90
2019-01-26T19:18:27.908Z,99.90
2019-01-26T19:20:55.646Z,99.90
2019-01-26T19:23:23.596Z,99.90
2019-01-26T19:25:51.297Z,99.90
2019-01-26T19:28:19.013Z,99.90
2019-01-26T19:30:46.717Z,99.90
2019-01-26T19:33:14.781Z,99.90
2019-01-26T19:35:42.464Z,99.90
2019-01-26T19:38:10.281Z,99.90
2019-01-26T19:40:38.017Z,99.90
2019-01-26T19:43:06.037Z,99.90
2019-01-26T19:45:33.760Z,99.90
2019-01-26T19:48:01.460Z,99.90
2019-01-26T19:50:29.167Z,99.90
2019-01-26T19:52:56.852Z,99.90
2019-01-26T19:55:24.592Z,99.90
2019-01-26T19:57:52.273Z,99.90
2019-01-26T20:00:20.005Z,99.90
2019-01-26T20:02:47.719Z,99.90
2019-01-26T20:05:16.895Z,99.90
2019-01-26T20:07:44.600Z,99.90
2019-01-26T20:10:12.558Z,99.90
2019-01-26T20:12:40.244Z,99.90
2019-01-26T20:15:12.901Z,99.90
2019-01-26T20:17:40.609Z,99.90
2019-01-26T20:20:10.833Z,99.90
2019-01-26T20:22:38.553Z,99.90
2019-01-26T20:25:06.486Z,99.90
2019-01-26T20:27:34.173Z,99.90
2019-01-26T20:30:01.894Z,99.90
2019-01-26T20:32:29.612Z,99.90
2019-01-26T20:34:57.385Z,99.90
2019-01-26T20:37:25.089Z,99.90
2019-01-26T20:39:52.794Z,99.90
2019-01-26T20:42:20.501Z,99.90
2019-01-26T20:44:48.193Z,99.90
2019-01-26T20:47:15.897Z,99.90
2019-01-26T20:49:43.629Z,99.90
2019-01-26T20:52:11.324Z,99.90
2019-01-26T20:54:39.038Z,99.90
2019-01-26T20:57:06.734Z,99.90
2019-01-26T20:59:34.470Z,99.90
2019-01-26T21:02:02.173Z,99.90
2019-01-26T21:04:29.888Z,99.90
2019-01-26T21:06:58.064Z,99.90
2019-01-26T21:09:25.821Z,99.90
2019-01-26T21:11:53.541Z,99.90
2019-01-26T21:14:21.238Z,99.90
2019-01-26T21:16:48.965Z,99.90
2019-01-26T21:19:16.573Z,99.90
2019-01-26T21:21:44.292Z,99.90
2019-01-26T21:24:12.021Z,99.90
2019-01-26T21:26:39.731Z,99.90
2019-01-26T21:29:07.462Z,99.90
2019-01-26T21:31:35.163Z,99.90
2019-01-26T21:34:02.961Z,99.90
2019-01-26T21:36:30.860Z,99.90
2019-01-26T21:39:01.246Z,99.90
2019-01-26T21:41:29.192Z,99.90
2019-01-26T21:43:57.120Z,99.90
2019-01-26T21:46:25.111Z,99.90
2019-01-26T21:48:53.060Z,99.90
2019-01-26T21:51:22.126Z,99.90
2019-01-26T21:53:49.875Z,99.90
2019-01-26T21:56:17.625Z,99.90
2019-01-26T21:58:45.372Z,99.90
2019-01-26T22:01:13.080Z,99.90
2019-01-26T22:03:40.857Z,99.90
2019-01-26T22:06:08.573Z,99.90
2019-01-26T22:08:36.325Z,99.90
2019-01-26T22:11:04.113Z,99.90
2019-01-26T22:13:31.884Z,99.90
2019-01-26T22:15:59.587Z,99.90
2019-01-26T22:18:27.338Z,99.90
2019-01-26T22:20:55.117Z,99.90
2019-01-26T22:23:22.936Z,99.90
2019-01-26T22:25:51.790Z,99.90
2019-01-26T22:28:19.541Z,99.90
2019-01-26T22:30:47.252Z,99.90
2019-01-26T22:33:14.993Z,99.90
2019-01-26T22:35:42.771Z,99.90
2019-01-26T22:38:10.521Z,99.90
2019-01-26T22:40:38.232Z,99.90
2019-01-26T22:43:05.931Z,99.90
2019-01-26T22:45:33.833Z,99.90
2019-01-26T22:48:01.526Z,99.90
2019-01-26T22:50:29.457Z,99.90
2019-01-26T22:52:57.201Z,99.90
2019-01-26T22:55:25.077Z,99.90
2019-01-26T22:57:52.886Z,99.90
2019-01-26T23:00:47.297Z,99.90
2019-01-26T23:03:15.263Z,99.90
2019-01-26T23:06:13.768Z,99.90
2019-01-26T23:08:41.519Z,99.90
2019-01-26T23:12:03.534Z,99.90
2019-01-26T23:15:08.689Z,99.90
2019-01-26T23:18:13.497Z,99.90
2019-01-26T23:21:14.157Z,99.90
2019-01-26T23:24:28.237Z,99.90
2019-01-26T23:27:46.825Z,99.90
2019-01-26T23:30:43.614Z,99.90
2019-01-26T23:33:11.345Z,99.90
2019-01-26T23:35:39.317Z,99.90
2019-01-26T23:38:07.042Z,99.90
2019-01-26T23:40:34.764Z,99.90
2019-01-26T23:43:02.501Z,99.90
2019-01-26T23:45:30.231Z,99.90
2019-01-26T23:47:57.980Z,99.90
2019-01-26T23:50:25.690Z,99.90
2019-01-26T23:52:53.417Z,99.90
2019-01-26T23:55:21.133Z,99.90
2019-01-26T23:57:48.922Z,99.90
